Time;durP1;ratioP1;P1;durP2;ratioP2;P2;SDS_P1;SDS_P2;PMS_P1;PMS_P2;Temp;Humidity;BMP_temperature;BMP_pressure;BME280_temperature;BME280_humidity;BME280_pressure;Samples;Min_cycle;Max_cycle;Signal;HPM_P1;HPM_P2
2023/05/28 00:00:56;;;;;;;9.00;6.33;;;12.40;99.90;;;;;;5037207;28;20813;-64
2023/05/28 00:03:23;;;;;;;7.73;5.40;;;12.40;99.90;;;;;;5037510;28;20433;-63
2023/05/28 00:05:50;;;;;;;11.53;6.50;;;12.30;99.90;;;;;;5037852;28;20881;-63
2023/05/28 00:08:17;;;;;;;9.67;6.00;;;12.30;99.90;;;;;;5038000;28;20449;-64
2023/05/28 00:10:44;;;;;;;9.07;6.13;;;12.20;99.90;;;;;;5037371;28;20451;-63
2023/05/28 00:13:11;;;;;;;11.40;6.50;;;12.20;99.90;;;;;;5036944;28;20453;-64
2023/05/28 00:15:38;;;;;;;9.10;6.80;;;12.10;99.90;;;;;;5037190;28;20898;-63
2023/05/28 00:18:08;;;;;;;9.30;6.03;;;12.10;99.90;;;;;;5038562;28;20535;-61
2023/05/28 00:20:35;;;;;;;10.77;6.13;;;12.10;99.90;;;;;;5038799;28;20437;-63
2023/05/28 00:23:02;;;;;;;9.30;7.00;;;12.00;99.90;;;;;;5038478;28;20892;-63
2023/05/28 00:25:29;;;;;;;14.13;6.40;;;12.00;99.90;;;;;;5037832;28;20878;-63
2023/05/28 00:27:56;;;;;;;8.40;6.20;;;12.00;99.90;;;;;;5041470;28;20808;-63
2023/05/28 00:30:24;;;;;;;10.50;6.27;;;12.00;99.90;;;;;;5043006;28;20536;-64
2023/05/28 00:32:51;;;;;;;9.17;6.07;;;12.00;99.90;;;;;;5042168;28;20456;-63
2023/05/28 00:35:19;;;;;;;9.50;6.20;;;11.90;99.90;;;;;;5042536;28;20465;-63
2023/05/28 00:37:46;;;;;;;9.13;6.57;;;11.90;99.90;;;;;;5041373;28;20546;-63
2023/05/28 00:40:15;;;;;;;8.30;5.40;;;11.80;99.90;;;;;;5041641;28;20443;-63
2023/05/28 00:42:42;;;;;;;10.33;6.30;;;11.80;99.90;;;;;;5041316;28;20449;-63
2023/05/28 00:45:11;;;;;;;9.77;6.77;;;11.70;99.90;;;;;;5041004;28;20465;-62
2023/05/28 00:47:38;;;;;;;10.93;6.70;;;11.70;99.90;;;;;;5040036;28;21004;-63
2023/05/28 00:50:07;;;;;;;14.93;6.93;;;11.70;99.90;;;;;;5040651;28;20455;-63
2023/05/28 00:52:36;;;;;;;7.70;5.63;;;11.70;99.90;;;;;;5040577;28;20456;-64
2023/05/28 00:55:05;;;;;;;8.10;5.87;;;11.70;99.90;;;;;;5041027;28;20469;-63
2023/05/28 00:57:31;;;;;;;12.77;6.43;;;11.70;99.90;;;;;;5040328;28;20531;-63
2023/05/28 01:00:05;;;;;;;9.50;7.37;;;11.70;99.90;;;;;;5041435;28;20487;-63
2023/05/28 01:02:32;;;;;;;10.37;6.03;;;11.70;99.90;;;;;;5041634;28;20479;-64
2023/05/28 01:04:59;;;;;;;10.37;6.40;;;11.70;99.90;;;;;;5041681;28;20465;-64
2023/05/28 01:07:26;;;;;;;10.20;6.50;;;11.70;99.90;;;;;;5040765;28;20508;-64
2023/05/28 01:09:54;;;;;;;12.43;6.47;;;11.60;99.90;;;;;;5041046;28;20455;-64
2023/05/28 01:12:23;;;;;;;8.80;6.67;;;11.60;99.90;;;;;;5039926;28;20449;-62
2023/05/28 01:14:50;;;;;;;13.67;6.50;;;11.60;99.90;;;;;;5041304;28;20565;-64
2023/05/28 01:17:16;;;;;;;8.67;6.40;;;11.60;99.90;;;;;;5042599;28;20479;-63
2023/05/28 01:19:47;;;;;;;9.10;6.03;;;11.60;99.90;;;;;;5041624;28;20452;-64
2023/05/28 01:22:17;;;;;;;8.90;6.40;;;11.60;99.90;;;;;;5041451;28;20442;-64
2023/05/28 01:24:46;;;;;;;7.27;6.10;;;11.60;99.90;;;;;;5041003;28;20496;-64
2023/05/28 01:27:13;;;;;;;12.83;7.43;;;11.50;99.90;;;;;;5041505;28;20445;-62
2023/05/28 01:29:40;;;;;;;10.87;6.60;;;11.50;99.90;;;;;;5042042;28;20472;-63
2023/05/28 01:32:07;;;;;;;10.37;6.43;;;11.40;99.90;;;;;;5041810;28;20452;-62
2023/05/28 01:34:34;;;;;;;9.00;6.50;;;11.40;99.90;;;;;;5042123;28;20500;-64
2023/05/28 01:37:04;;;;;;;8.53;6.13;;;11.40;99.90;;;;;;5042093;28;20575;-63
2023/05/28 01:39:36;;;;;;;11.03;7.37;;;11.30;99.90;;;;;;5041464;28;20429;-63
2023/05/28 01:42:06;;;;;;;8.60;6.87;;;11.30;99.90;;;;;;5042537;28;20460;-63
2023/05/28 01:44:34;;;;;;;10.73;7.03;;;11.30;99.90;;;;;;5040788;28;20472;-64
2023/05/28 01:47:01;;;;;;;9.60;6.60;;;11.20;99.90;;;;;;5040891;28;20784;-63
2023/05/28 01:49:27;;;;;;;8.80;6.30;;;11.20;99.90;;;;;;5042136;28;20455;-62
2023/05/28 01:51:56;;;;;;;8.97;6.30;;;11.20;99.90;;;;;;5041974;28;20452;-64
2023/05/28 01:54:23;;;;;;;7.40;5.30;;;11.10;99.90;;;;;;5039388;28;20465;-64
2023/05/28 01:56:49;;;;;;;9.03;6.53;;;11.10;99.90;;;;;;5040852;28;20476;-64
2023/05/28 01:59:18;;;;;;;13.73;6.50;;;11.00;99.90;;;;;;5041678;28;20449;-63
2023/05/28 02:01:44;;;;;;;11.43;6.50;;;11.00;99.90;;;;;;5041400;28;20820;-63
2023/05/28 02:04:11;;;;;;;9.87;6.93;;;10.90;99.90;;;;;;5040719;28;20472;-63
2023/05/28 02:06:40;;;;;;;11.90;7.47;;;10.90;99.90;;;;;;5041704;28;20441;-64
2023/05/28 02:09:07;;;;;;;12.20;7.80;;;10.90;99.90;;;;;;5039385;28;20527;-63
2023/05/28 02:11:34;;;;;;;8.83;7.23;;;10.90;99.90;;;;;;5039710;28;20449;-64
2023/05/28 02:14:01;;;;;;;9.13;7.20;;;10.80;99.90;;;;;;5041175;28;20477;-63
2023/05/28 02:16:29;;;;;;;9.87;7.47;;;10.80;99.90;;;;;;5041685;28;20865;-63
2023/05/28 02:18:58;;;;;;;10.77;9.00;;;10.80;99.90;;;;;;5041468;28;20452;-64
2023/05/28 02:21:24;;;;;;;10.82;7.93;;;10.70;99.90;;;;;;5040867;28;20802;-64
2023/05/28 02:23:51;;;;;;;13.13;8.03;;;10.70;99.90;;;;;;5038721;28;20272;-63
2023/05/28 02:26:20;;;;;;;10.27;8.40;;;10.70;99.90;;;;;;5039826;28;20444;-63
2023/05/28 02:28:46;;;;;;;14.37;8.40;;;10.70;99.90;;;;;;5041497;28;20487;-62
2023/05/28 02:31:14;;;;;;;13.23;8.40;;;10.60;99.90;;;;;;5041517;28;20455;-63
2023/05/28 02:33:43;;;;;;;9.73;7.80;;;10.60;99.90;;;;;;5040561;28;20629;-64
2023/05/28 02:36:12;;;;;;;8.90;7.17;;;10.60;99.90;;;;;;5041469;28;20441;-63
2023/05/28 02:38:39;;;;;;;16.33;7.90;;;10.60;99.90;;;;;;5041793;28;20524;-62
2023/05/28 02:41:05;;;;;;;11.33;7.40;;;10.60;99.90;;;;;;5040807;28;20939;-62
2023/05/28 02:43:32;;;;;;;11.77;8.70;;;10.60;99.90;;;;;;5040449;28;20480;-63
2023/05/28 02:45:59;;;;;;;10.53;7.60;;;10.60;99.90;;;;;;5041360;28;20437;-63
2023/05/28 02:48:26;;;;;;;12.83;8.53;;;10.60;99.90;;;;;;5040454;28;20436;-62
2023/05/28 02:50:54;;;;;;;19.77;8.35;;;10.60;99.90;;;;;;5039748;28;20956;-64
2023/05/28 02:53:22;;;;;;;10.50;7.23;;;10.60;99.90;;;;;;5041091;28;20216;-63
2023/05/28 02:55:50;;;;;;;10.47;7.20;;;10.60;99.90;;;;;;5040364;28;20961;-64
2023/05/28 02:58:17;;;;;;;14.07;7.53;;;10.50;99.90;;;;;;5039979;28;20484;-64
2023/05/28 03:00:44;;;;;;;11.70;7.60;;;10.50;99.90;;;;;;5040932;28;20475;-64
2023/05/28 03:03:10;;;;;;;16.27;7.77;;;10.50;99.90;;;;;;5040262;28;20477;-63
2023/05/28 03:05:37;;;;;;;9.10;6.83;;;10.50;99.90;;;;;;5040766;28;20460;-64
2023/05/28 03:08:05;;;;;;;8.27;6.63;;;10.50;99.90;;;;;;5040426;28;20441;-64
2023/05/28 03:10:32;;;;;;;14.83;7.30;;;10.50;99.90;;;;;;5039879;28;20441;-63
2023/05/28 03:12:59;;;;;;;13.97;7.37;;;10.50;99.90;;;;;;5040129;28;20455;-63
2023/05/28 03:15:26;;;;;;;10.83;7.73;;;10.50;99.90;;;;;;5039991;28;20504;-63
2023/05/28 03:17:53;;;;;;;11.03;6.93;;;10.50;99.90;;;;;;5040239;28;20567;-63
2023/05/28 03:20:20;;;;;;;13.02;7.93;;;10.50;99.90;;;;;;5039763;28;20453;-63
2023/05/28 03:22:48;;;;;;;8.70;7.30;;;10.50;99.90;;;;;;5040202;28;20202;-63
2023/05/28 03:25:17;;;;;;;13.23;7.07;;;10.50;99.90;;;;;;5040401;28;20477;-63
2023/05/28 03:27:43;;;;;;;12.30;7.23;;;10.50;99.90;;;;;;5040068;28;20930;-63
2023/05/28 03:30:11;;;;;;;10.57;6.97;;;10.50;99.90;;;;;;5040104;28;20467;-63
2023/05/28 03:32:38;;;;;;;10.10;6.63;;;10.60;99.90;;;;;;5040107;28;20449;-64
2023/05/28 03:35:06;;;;;;;9.63;7.83;;;10.60;99.90;;;;;;5040425;28;20476;-62
2023/05/28 03:37:33;;;;;;;9.33;7.37;;;10.60;99.90;;;;;;5040896;28;20849;-63
2023/05/28 03:40:00;;;;;;;14.47;7.03;;;10.60;99.90;;;;;;5040431;28;20448;-63
2023/05/28 03:42:28;;;;;;;20.97;9.27;;;10.70;99.90;;;;;;5038918;28;20452;-64
2023/05/28 03:44:54;;;;;;;21.87;8.43;;;10.70;99.90;;;;;;5038787;28;20469;-63
2023/05/28 03:47:21;;;;;;;10.47;7.50;;;10.70;99.90;;;;;;5038277;28;20437;-63
2023/05/28 03:49:48;;;;;;;9.53;6.90;;;10.80;99.90;;;;;;5037648;28;20445;-63
2023/05/28 03:52:15;;;;;;;11.30;6.83;;;10.80;99.90;;;;;;5037907;28;20449;-63
2023/05/28 03:54:42;;;;;;;12.07;7.57;;;10.80;99.90;;;;;;5038344;28;20465;-62
2023/05/28 03:57:09;;;;;;;10.57;8.00;;;10.90;99.90;;;;;;5037614;28;20477;-64
2023/05/28 03:59:37;;;;;;;9.43;7.43;;;11.10;99.90;;;;;;5036712;28;20445;-64
2023/05/28 04:02:04;;;;;;;9.77;7.00;;;11.50;99.90;;;;;;5036215;28;20449;-64
2023/05/28 04:04:31;;;;;;;12.70;7.27;;;11.80;99.90;;;;;;5036868;28;20465;-62
2023/05/28 04:06:58;;;;;;;11.17;7.37;;;12.20;99.90;;;;;;5035954;28;20456;-62
2023/05/28 04:11:45;;;;;;;12.97;6.93;;;12.90;99.90;;;;;;5094804;27;21121;-62
2023/05/28 04:14:12;;;;;;;13.50;7.47;;;13.30;99.90;;;;;;5094070;28;20480;-62
2023/05/28 04:16:39;;;;;;;10.73;7.00;;;13.60;99.90;;;;;;5093582;28;20469;-63
2023/05/28 04:19:06;;;;;;;11.13;7.43;;;13.90;99.90;;;;;;5093816;28;20446;-63
2023/05/28 04:21:33;;;;;;;11.97;6.60;;;14.10;99.90;;;;;;5094076;28;20449;-63
2023/05/28 04:24:00;;;;;;;10.47;7.43;;;14.40;99.90;;;;;;5094608;28;20462;-63
2023/05/28 04:26:27;;;;;;;9.63;6.93;;;14.60;99.90;;;;;;5097228;28;20503;-63
2023/05/28 04:28:55;;;;;;;8.37;6.20;;;14.90;99.90;;;;;;5096612;28;20448;-63
2023/05/28 04:31:22;;;;;;;7.90;6.13;;;15.10;99.90;;;;;;5094641;28;20478;-63
2023/05/28 04:33:48;;;;;;;8.90;6.40;;;15.20;99.90;;;;;;5092360;28;20470;-64
2023/05/28 04:36:15;;;;;;;7.83;6.37;;;15.40;99.90;;;;;;5094666;28;20446;-63
2023/05/28 04:38:42;;;;;;;10.90;7.07;;;15.40;99.90;;;;;;5094440;28;20442;-63
2023/05/28 04:41:09;;;;;;;7.80;6.17;;;15.50;99.90;;;;;;5095199;28;20895;-63
2023/05/28 04:43:36;;;;;;;10.57;6.20;;;15.70;99.90;;;;;;5093877;28;20481;-62
2023/05/28 04:46:04;;;;;;;8.70;5.73;;;15.90;99.90;;;;;;5093076;28;20476;-62
2023/05/28 04:48:32;;;;;;;9.73;6.30;;;16.00;99.90;;;;;;5092473;28;20461;-62
2023/05/28 04:50:59;;;;;;;8.53;5.60;;;16.10;99.90;;;;;;5091396;28;20531;-62
2023/05/28 04:53:25;;;;;;;10.37;6.50;;;16.20;99.90;;;;;;5091840;28;20450;-62
2023/05/28 04:55:53;;;;;;;6.17;5.53;;;16.30;99.00;;;;;;5091842;28;20449;-62
2023/05/28 04:58:20;;;;;;;9.30;6.23;;;16.50;98.10;;;;;;5091815;28;20923;-63
2023/05/28 05:00:47;;;;;;;7.40;5.63;;;16.70;97.10;;;;;;5091259;28;20469;-64
2023/05/28 05:03:15;;;;;;;7.87;5.43;;;16.90;95.40;;;;;;5091775;28;20462;-62
2023/05/28 05:05:42;;;;;;;6.83;4.93;;;17.10;93.70;;;;;;5092326;28;20532;-63
2023/05/28 05:08:13;;;;;;;10.23;5.40;;;17.20;92.40;;;;;;5091206;28;20443;-63
2023/05/28 05:10:39;;;;;;;9.43;5.97;;;17.30;90.80;;;;;;5091471;28;20483;-63
2023/05/28 05:13:06;;;;;;;7.83;6.10;;;17.40;89.40;;;;;;5091588;28;20448;-63
2023/05/28 05:15:33;;;;;;;9.07;6.47;;;17.50;86.80;;;;;;5091711;28;20552;-63
2023/05/28 05:18:00;;;;;;;10.20;5.97;;;17.60;85.70;;;;;;5091951;28;20501;-62
2023/05/28 05:20:29;;;;;;;6.47;5.63;;;17.60;83.30;;;;;;5092206;28;20446;-63
2023/05/28 05:22:56;;;;;;;9.77;5.93;;;17.60;82.20;;;;;;5079770;28;20445;-62
2023/05/28 05:25:23;;;;;;;6.90;6.23;;;17.60;81.20;;;;;;5078419;28;20567;-64
2023/05/28 05:27:50;;;;;;;8.30;5.97;;;17.60;80.30;;;;;;5078509;28;20451;-62
2023/05/28 05:30:17;;;;;;;5.30;4.77;;;17.60;79.20;;;;;;5078425;28;20882;-62
2023/05/28 05:32:44;;;;;;;8.53;5.10;;;17.70;78.00;;;;;;5078947;28;20499;-63
2023/05/28 05:35:11;;;;;;;7.87;5.27;;;17.60;77.10;;;;;;5078501;28;20522;-63
2023/05/28 05:37:39;;;;;;;8.07;5.20;;;17.60;76.80;;;;;;5078653;28;20456;-63
2023/05/28 05:40:08;;;;;;;6.03;5.20;;;17.70;75.40;;;;;;5078436;28;20446;-62
2023/05/28 05:42:35;;;;;;;7.20;5.40;;;17.80;74.50;;;;;;5078408;28;20453;-62
2023/05/28 05:45:02;;;;;;;6.50;5.50;;;17.80;73.70;;;;;;5078229;28;20465;-63
2023/05/28 05:47:29;;;;;;;8.13;5.00;;;17.90;72.70;;;;;;5077841;28;20532;-62
2023/05/28 05:49:56;;;;;;;9.97;5.73;;;18.10;72.10;;;;;;5078290;28;20552;-62
2023/05/28 05:52:23;;;;;;;12.30;6.27;;;18.20;71.10;;;;;;5078658;28;20476;-61
2023/05/28 05:54:51;;;;;;;8.30;4.60;;;18.20;70.10;;;;;;5078454;28;20470;-62
2023/05/28 05:57:18;;;;;;;7.50;4.80;;;18.20;69.00;;;;;;5078425;28;20460;-62
2023/05/28 05:59:45;;;;;;;7.03;5.20;;;18.20;68.40;;;;;;5078192;28;20442;-63
2023/05/28 06:02:12;;;;;;;9.90;4.90;;;18.20;67.60;;;;;;5078345;28;20511;-64
2023/05/28 06:04:38;;;;;;;7.70;5.57;;;18.10;67.50;;;;;;5078322;28;20474;-62
2023/05/28 06:07:06;;;;;;;7.37;5.50;;;18.00;67.40;;;;;;5078007;28;20494;-64
2023/05/28 06:09:33;;;;;;;9.63;4.93;;;18.10;67.20;;;;;;5078018;28;20447;-63
2023/05/28 06:12:02;;;;;;;10.10;5.10;;;18.10;67.10;;;;;;5078436;28;20502;-63
2023/05/28 06:14:28;;;;;;;7.17;4.50;;;18.20;66.60;;;;;;5077975;28;20520;-62
2023/05/28 06:16:55;;;;;;;10.30;5.63;;;18.20;66.00;;;;;;5078125;28;20461;-63
2023/05/28 06:19:23;;;;;;;8.80;5.53;;;18.30;65.50;;;;;;5077464;28;20966;-63
2023/05/28 06:21:50;;;;;;;8.30;5.30;;;18.30;65.20;;;;;;5077181;28;20880;-63
2023/05/28 06:24:17;;;;;;;9.50;5.70;;;18.30;64.50;;;;;;5077352;28;20491;-64
2023/05/28 06:26:43;;;;;;;12.90;6.60;;;18.30;64.10;;;;;;5077340;28;20435;-64
2023/05/28 06:29:12;;;;;;;11.17;5.93;;;18.30;63.60;;;;;;5077912;28;20459;-62
2023/05/28 06:31:40;;;;;;;7.53;5.97;;;18.30;63.10;;;;;;5076702;28;20490;-62
2023/05/28 06:34:06;;;;;;;12.50;6.77;;;18.20;62.90;;;;;;5076267;28;20507;-62
2023/05/28 06:36:35;;;;;;;9.93;6.30;;;18.10;63.00;;;;;;5075602;28;20542;-62
2023/05/28 06:39:02;;;;;;;8.53;5.63;;;18.10;62.80;;;;;;5074742;28;20443;-59
2023/05/28 06:41:29;;;;;;;7.20;5.00;;;18.20;62.70;;;;;;5075058;28;20439;-59
2023/05/28 06:43:56;;;;;;;8.07;5.03;;;18.20;62.40;;;;;;5074333;28;20478;-60
2023/05/28 06:46:24;;;;;;;9.33;5.70;;;18.10;62.40;;;;;;5074682;28;20901;-59
2023/05/28 06:48:50;;;;;;;8.53;4.97;;;18.00;62.10;;;;;;5074219;28;20462;-59
2023/05/28 06:51:17;;;;;;;10.10;5.30;;;18.10;62.10;;;;;;5073637;28;21014;-59
2023/05/28 06:53:44;;;;;;;8.23;4.67;;;18.20;61.60;;;;;;5074518;28;20468;-59
2023/05/28 06:56:11;;;;;;;8.57;5.10;;;18.30;61.10;;;;;;5076211;28;20450;-59
2023/05/28 06:58:38;;;;;;;9.10;5.20;;;18.40;60.90;;;;;;5074064;28;20797;-59
2023/05/28 07:01:04;;;;;;;8.17;4.70;;;18.60;60.30;;;;;;5074688;28;20466;-60
2023/05/28 07:03:35;;;;;;;8.80;4.87;;;18.60;59.90;;;;;;5075034;28;20853;-60
2023/05/28 07:06:03;;;;;;;5.53;4.73;;;18.60;59.30;;;;;;5074570;28;20522;-59
2023/05/28 07:08:30;;;;;;;6.23;4.50;;;18.60;59.00;;;;;;5074109;28;20451;-57
2023/05/28 07:10:56;;;;;;;6.13;4.37;;;18.70;58.60;;;;;;5073915;28;20498;-58
2023/05/28 07:13:23;;;;;;;9.00;4.70;;;18.80;58.30;;;;;;5074178;28;20448;-57
2023/05/28 07:15:50;;;;;;;6.83;4.40;;;18.90;57.90;;;;;;5075968;28;20454;-57
2023/05/28 07:18:17;;;;;;;8.20;4.60;;;19.00;57.60;;;;;;5076192;28;20448;-57
2023/05/28 07:20:45;;;;;;;6.80;4.27;;;19.10;57.20;;;;;;5075867;28;20447;-58
2023/05/28 07:23:12;;;;;;;7.73;4.27;;;19.20;56.80;;;;;;5076038;28;20450;-57
2023/05/28 07:25:39;;;;;;;8.33;3.90;;;19.30;56.30;;;;;;5075633;28;20466;-59
2023/05/28 07:28:06;;;;;;;6.53;4.63;;;19.40;55.60;;;;;;5075833;28;20454;-59
2023/05/28 07:30:32;;;;;;;7.87;4.50;;;19.50;54.80;;;;;;5076317;28;20442;-58
2023/05/28 07:32:59;;;;;;;7.57;4.20;;;19.60;54.30;;;;;;5075717;28;20889;-58
2023/05/28 07:35:26;;;;;;;7.77;4.10;;;19.60;53.90;;;;;;5075819;28;20497;-56
2023/05/28 07:37:55;;;;;;;6.93;4.00;;;19.60;53.60;;;;;;5075460;28;20454;-59
2023/05/28 07:40:22;;;;;;;6.53;4.27;;;19.50;53.50;;;;;;5075714;28;20447;-58
2023/05/28 07:42:49;;;;;;;8.07;3.87;;;19.50;53.40;;;;;;5075809;28;20454;-57
2023/05/28 07:45:16;;;;;;;4.93;3.70;;;19.60;52.90;;;;;;5074532;28;20520;-59
2023/05/28 07:47:43;;;;;;;6.23;3.70;;;19.80;52.40;;;;;;5074889;28;20453;-59
2023/05/28 07:50:10;;;;;;;5.20;3.73;;;20.00;52.00;;;;;;5074261;28;20444;-59
2023/05/28 07:52:39;;;;;;;7.77;3.97;;;20.10;51.70;;;;;;5074144;28;20471;-57
2023/05/28 07:55:08;;;;;;;4.47;3.67;;;20.20;51.50;;;;;;5074615;28;20467;-58
2023/05/28 07:57:35;;;;;;;7.70;3.70;;;20.30;51.00;;;;;;5074350;28;20448;-59
2023/05/28 08:00:05;;;;;;;6.50;3.50;;;20.60;50.20;;;;;;5074236;28;20457;-59
2023/05/28 08:02:32;;;;;;;5.70;3.10;;;20.80;49.00;;;;;;5073714;28;20443;-58
2023/05/28 08:05:00;;;;;;;9.67;3.10;;;20.90;48.00;;;;;;5074264;28;20990;-58
2023/05/28 08:07:27;;;;;;;3.87;2.63;;;21.00;46.50;;;;;;5073852;28;20964;-59
2023/05/28 08:09:54;;;;;;;5.17;2.40;;;21.10;45.70;;;;;;5074106;28;20460;-58
2023/05/28 08:12:22;;;;;;;4.50;2.50;;;21.30;44.80;;;;;;5074283;28;20506;-58
2023/05/28 08:14:50;;;;;;;3.83;2.67;;;21.30;44.10;;;;;;5073997;28;20463;-55
2023/05/28 08:17:17;;;;;;;5.70;1.97;;;21.40;43.70;;;;;;5073560;28;20456;-61
2023/05/28 08:19:44;;;;;;;4.83;2.47;;;21.40;43.20;;;;;;5073717;28;20441;-62
2023/05/28 08:22:11;;;;;;;5.10;2.37;;;21.50;42.50;;;;;;5073740;28;20539;-62
2023/05/28 08:24:38;;;;;;;2.13;1.90;;;21.70;42.40;;;;;;5073788;28;20466;-63
2023/05/28 08:27:05;;;;;;;2.40;1.73;;;21.80;41.10;;;;;;5073775;28;20445;-62
2023/05/28 08:29:33;;;;;;;3.93;2.57;;;21.90;40.30;;;;;;5073408;28;20464;-62
2023/05/28 08:32:01;;;;;;;5.60;2.13;;;22.00;39.80;;;;;;5073415;28;20476;-63
2023/05/28 08:34:28;;;;;;;4.17;2.20;;;22.00;39.60;;;;;;5073473;28;20482;-61
2023/05/28 08:36:55;;;;;;;4.50;2.20;;;22.10;39.20;;;;;;5073846;28;20561;-62
2023/05/28 08:39:24;;;;;;;3.17;2.30;;;22.20;38.30;;;;;;5073400;28;20453;-61
2023/05/28 08:41:51;;;;;;;3.73;2.17;;;22.30;38.50;;;;;;5074161;28;20449;-62
2023/05/28 08:44:18;;;;;;;2.57;1.70;;;22.40;37.60;;;;;;5073805;28;20472;-61
2023/05/28 08:46:46;;;;;;;3.47;2.20;;;22.40;37.50;;;;;;5073626;28;20446;-61
2023/05/28 08:49:15;;;;;;;2.90;2.27;;;22.50;36.20;;;;;;5073628;28;20447;-60
2023/05/28 08:51:43;;;;;;;3.10;1.80;;;22.50;35.80;;;;;;5073054;28;20481;-62
2023/05/28 08:54:10;;;;;;;6.20;2.20;;;22.60;35.40;;;;;;5073038;28;20826;-63
2023/05/28 08:56:39;;;;;;;3.33;2.57;;;22.70;35.10;;;;;;5073664;28;20452;-62
2023/05/28 08:59:06;;;;;;;3.63;2.67;;;22.70;34.90;;;;;;5077186;28;20470;-61
2023/05/28 09:01:33;;;;;;;4.10;2.10;;;22.70;34.60;;;;;;5077637;28;20797;-61
2023/05/28 09:04:01;;;;;;;2.27;1.93;;;22.70;34.10;;;;;;5077473;28;20587;-62
2023/05/28 09:06:31;;;;;;;5.60;2.87;;;22.80;34.20;;;;;;5077084;28;20442;-61
2023/05/28 09:08:59;;;;;;;3.60;2.70;;;22.90;34.30;;;;;;5076971;28;20450;-62
2023/05/28 09:11:26;;;;;;;3.10;2.47;;;23.10;34.10;;;;;;5076956;28;20493;-64
2023/05/28 09:13:53;;;;;;;5.17;2.30;;;23.20;33.90;;;;;;5076787;28;21029;-63
2023/05/28 09:16:22;;;;;;;3.67;2.60;;;23.30;33.60;;;;;;5077197;28;20480;-62
2023/05/28 09:18:50;;;;;;;4.57;2.70;;;23.30;33.30;;;;;;5077388;28;20447;-60
2023/05/28 09:21:20;;;;;;;5.70;2.50;;;23.30;33.80;;;;;;5076942;28;20504;-62
2023/05/28 09:26:15;;;;;;;2.77;2.30;;;23.40;34.20;;;;;;5035497;28;20479;-68
2023/05/28 09:28:42;;;;;;;3.30;2.20;;;23.40;34.30;;;;;;5036571;28;20453;-65
2023/05/28 09:31:09;;;;;;;4.00;2.30;;;23.50;34.40;;;;;;5036543;28;20864;-66
2023/05/28 09:33:41;;;;;;;6.53;2.73;;;23.70;34.60;;;;;;5036223;28;20800;-67
2023/05/28 09:36:08;;;;;;;6.30;3.03;;;23.90;34.50;;;;;;5036558;28;20502;-67
2023/05/28 09:38:41;;;;;;;4.50;2.70;;;24.20;34.40;;;;;;5036764;28;20473;-66
2023/05/28 09:41:20;;;;;;;4.30;2.43;;;24.50;34.10;;;;;;5036089;28;20484;-65
2023/05/28 09:43:47;;;;;;;5.20;2.77;;;24.70;33.40;;;;;;5036040;28;20427;-67
2023/05/28 09:46:13;;;;;;;4.13;2.70;;;24.70;33.20;;;;;;5035708;28;20956;-67
2023/05/28 09:48:40;;;;;;;3.63;2.67;;;24.70;33.00;;;;;;5035255;28;20938;-67
2023/05/28 09:51:13;;;;;;;4.43;2.60;;;24.90;33.40;;;;;;5035800;28;20444;-66
2023/05/28 09:53:45;;;;;;;11.50;2.50;;;25.20;33.30;;;;;;5035572;28;20435;-66
2023/05/28 09:56:13;;;;;;;3.57;2.40;;;25.60;32.90;;;;;;5035513;28;20528;-67
2023/05/28 09:58:44;;;;;;;4.63;3.07;;;26.00;32.50;;;;;;5035935;28;20456;-66
2023/05/28 10:01:14;;;;;;;4.97;2.67;;;26.20;32.00;;;;;;5036018;28;20440;-66
2023/05/28 10:03:46;;;;;;;5.00;2.97;;;26.30;31.60;;;;;;5035496;28;20455;-68
2023/05/28 10:06:17;;;;;;;4.10;3.10;;;26.20;31.60;;;;;;5035743;28;20519;-67
2023/05/28 10:08:49;;;;;;;8.23;2.30;;;25.90;31.70;;;;;;5035055;28;20442;-67
2023/05/28 10:11:19;;;;;;;5.10;2.57;;;25.70;32.30;;;;;;5035260;28;20433;-66
2023/05/28 10:13:47;;;;;;;4.87;2.80;;;25.60;32.50;;;;;;5035858;28;20445;-68
2023/05/28 10:16:14;;;;;;;6.50;2.93;;;25.50;32.50;;;;;;5035257;28;20449;-67
2023/05/28 10:18:42;;;;;;;4.27;2.80;;;25.50;32.70;;;;;;5035401;28;20473;-67
2023/05/28 10:21:10;;;;;;;4.73;2.87;;;25.50;32.80;;;;;;5035543;28;20456;-67
2023/05/28 10:23:38;;;;;;;3.43;3.07;;;25.30;32.70;;;;;;5035949;28;20548;-66
2023/05/28 10:26:07;;;;;;;4.53;2.70;;;25.10;32.90;;;;;;5035715;28;20472;-65
2023/05/28 10:28:34;;;;;;;5.10;2.60;;;24.90;33.20;;;;;;5035363;28;20453;-65
2023/05/28 10:31:03;;;;;;;3.93;2.63;;;25.00;33.30;;;;;;5034915;28;20438;-68
2023/05/28 10:33:30;;;;;;;4.10;3.00;;;25.10;33.20;;;;;;5036553;28;20494;-67
2023/05/28 10:35:59;;;;;;;2.90;2.20;;;25.20;33.10;;;;;;5037912;28;20473;-68
2023/05/28 10:38:27;;;;;;;3.60;2.40;;;25.30;32.60;;;;;;5036065;28;20943;-65
2023/05/28 10:41:00;;;;;;;2.97;2.63;;;25.30;32.50;;;;;;5038307;28;20464;-67
2023/05/28 10:43:47;;;;;;;4.10;2.60;;;25.50;32.40;;;;;;5036555;28;20430;-66
2023/05/28 10:46:19;;;;;;;5.00;3.40;;;25.70;32.10;;;;;;5035386;28;20481;-66
2023/05/28 10:49:16;;;;;;;3.60;3.00;;;25.50;31.90;;;;;;5040830;28;20450;-67
2023/05/28 10:51:57;;;;;;;3.00;2.47;;;25.30;32.10;;;;;;4935965;29;21052;-66
2023/05/28 10:54:40;;;;;;;3.50;2.67;;;25.30;32.30;;;;;;5025784;28;20478;-64
2023/05/28 10:57:09;;;;;;;5.53;2.60;;;25.30;32.30;;;;;;5035089;28;20440;-64
2023/05/28 10:59:44;;;;;;;3.50;2.90;;;25.30;32.40;;;;;;5035019;28;21014;-65
2023/05/28 11:02:11;;;;;;;5.10;2.83;;;25.30;32.50;;;;;;5034819;28;20713;-65
2023/05/28 11:04:39;;;;;;;4.10;2.80;;;25.30;32.50;;;;;;5035036;28;20501;-63
2023/05/28 11:07:06;;;;;;;2.60;2.20;;;25.30;32.40;;;;;;5035234;28;20455;-64
2023/05/28 11:09:34;;;;;;;4.33;2.70;;;25.30;32.40;;;;;;5035220;28;20447;-65
2023/05/28 11:12:01;;;;;;;9.13;2.93;;;25.30;32.90;;;;;;5035667;28;20974;-64
2023/05/28 11:14:36;;;;;;;4.70;2.83;;;25.30;33.20;;;;;;5035561;28;20829;-63
2023/05/28 11:19:57;;;;;;;5.17;3.00;;;25.40;33.50;;;;;;5033550;28;20791;-65
2023/05/28 11:22:24;;;;;;;4.70;2.87;;;25.30;33.70;;;;;;5035429;28;20442;-64
2023/05/28 11:25:04;;;;;;;3.77;3.10;;;25.10;33.90;;;;;;5035954;28;20469;-64
2023/05/28 11:27:33;;;;;;;5.87;2.43;;;24.90;34.10;;;;;;5034441;28;20470;-64
2023/05/28 11:30:01;;;;;;;4.57;2.50;;;24.80;34.40;;;;;;5033854;28;20447;-64
2023/05/28 11:32:33;;;;;;;4.50;2.57;;;24.70;34.60;;;;;;5033582;28;20512;-64
2023/05/28 11:35:00;;;;;;;4.90;2.87;;;24.50;34.80;;;;;;5034033;28;20467;-64
2023/05/28 11:37:28;;;;;;;5.50;3.07;;;24.40;35.10;;;;;;5033618;28;20941;-63
2023/05/28 11:39:56;;;;;;;4.00;2.60;;;24.30;35.30;;;;;;5033745;28;20508;-64
2023/05/28 11:42:25;;;;;;;3.07;2.57;;;24.20;35.50;;;;;;5034128;28;20563;-63
2023/05/28 11:44:52;;;;;;;5.50;2.63;;;24.20;35.70;;;;;;5033203;28;20469;-64
2023/05/28 11:47:20;;;;;;;5.33;3.33;;;24.30;35.70;;;;;;5033283;28;20482;-65
2023/05/28 11:49:49;;;;;;;9.13;3.07;;;24.40;35.60;;;;;;5033413;28;20451;-64
2023/05/28 11:52:17;;;;;;;9.50;3.17;;;24.70;35.10;;;;;;5033852;28;20501;-64
2023/05/28 11:54:46;;;;;;;5.93;3.23;;;25.10;34.70;;;;;;5033384;28;20997;-66
2023/05/28 11:57:21;;;;;;;4.90;2.40;;;25.60;34.10;;;;;;5033629;28;20464;-64
2023/05/28 11:59:55;;;;;;;5.87;3.50;;;26.10;33.30;;;;;;5033730;28;20442;-63
2023/05/28 12:02:23;;;;;;;5.03;2.37;;;26.50;32.90;;;;;;5033402;28;20446;-63
2023/05/28 12:05:03;;;;;;;6.93;2.70;;;26.70;32.40;;;;;;5033221;28;20846;-64
2023/05/28 12:07:30;;;;;;;5.73;2.63;;;26.90;32.10;;;;;;5033730;28;20437;-62
2023/05/28 12:10:07;;;;;;;4.00;2.70;;;27.20;31.80;;;;;;5033473;28;20941;-64
2023/05/28 12:12:35;;;;;;;7.13;3.33;;;27.50;31.40;;;;;;5032955;28;20465;-64
2023/05/28 12:15:06;;;;;;;5.97;3.20;;;27.60;31.20;;;;;;5032806;28;20480;-64
2023/05/28 12:17:37;;;;;;;3.60;2.80;;;27.70;30.80;;;;;;5033445;28;20550;-63
2023/05/28 12:20:28;;;;;;;6.30;3.27;;;28.00;30.60;;;;;;5033512;28;20449;-64
2023/05/28 12:23:01;;;;;;;3.63;2.50;;;28.20;30.50;;;;;;5033879;28;20422;-63
2023/05/28 12:25:28;;;;;;;4.80;2.90;;;28.40;30.00;;;;;;5039414;28;20486;-64
2023/05/28 12:27:56;;;;;;;4.33;2.77;;;28.40;30.00;;;;;;5042306;28;20501;-64
2023/05/28 12:30:23;;;;;;;3.77;2.57;;;28.30;30.00;;;;;;5040280;28;20457;-64
2023/05/28 12:32:50;;;;;;;5.20;3.00;;;28.20;30.10;;;;;;5039425;28;20479;-64
2023/05/28 12:35:18;;;;;;;4.93;2.43;;;28.10;30.20;;;;;;5041051;28;20469;-64
2023/05/28 12:37:45;;;;;;;5.00;3.47;;;27.60;30.60;;;;;;5040245;28;20545;-62
2023/05/28 12:40:13;;;;;;;4.03;2.80;;;27.20;31.00;;;;;;5039812;28;20441;-64
2023/05/28 12:42:39;;;;;;;4.93;2.80;;;26.80;31.70;;;;;;5039547;28;20530;-63
2023/05/28 12:45:07;;;;;;;4.63;2.90;;;26.40;32.40;;;;;;5039220;28;20466;-63
2023/05/28 12:47:34;;;;;;;3.80;2.73;;;26.20;33.00;;;;;;5040973;28;20456;-63
2023/05/28 12:50:01;;;;;;;4.80;2.70;;;26.10;33.30;;;;;;5036628;28;20949;-65
2023/05/28 12:52:29;;;;;;;4.27;2.57;;;26.00;33.40;;;;;;5036547;28;20485;-63
2023/05/28 12:54:58;;;;;;;3.47;2.47;;;26.00;34.10;;;;;;5037130;28;20471;-64
2023/05/28 12:57:25;;;;;;;3.60;3.23;;;25.90;33.50;;;;;;5038955;28;20457;-66